sensor_id;sensor_type;location;lat;lon;timestamp;temperature;humidity
47773;DHT22;33534;51.028;13.716;2022-08-03T00:04:04;20.70;64.70
47773;DHT22;33534;51.028;13.716;2022-08-03T00:06:30;20.70;65.10
47773;DHT22;33534;51.028;13.716;2022-08-03T00:08:55;20.60;65.40
47773;DHT22;33534;51.028;13.716;2022-08-03T00:25:58;20.20;66.90
47773;DHT22;33534;51.028;13.716;2022-08-03T00:28:23;20.10;67.30
47773;DHT22;33534;51.028;13.716;2022-08-03T00:30:49;20.10;67.30
47773;DHT22;33534;51.028;13.716;2022-08-03T00:33:15;20.00;67.40
47773;DHT22;33534;51.028;13.716;2022-08-03T00:35:41;20.00;67.70
47773;DHT22;33534;51.028;13.716;2022-08-03T00:38:07;20.00;67.90
47773;DHT22;33534;51.028;13.716;2022-08-03T00:40:33;20.00;67.90
47773;DHT22;33534;51.028;13.716;2022-08-03T00:43:01;19.90;68.10
47773;DHT22;33534;51.028;13.716;2022-08-03T00:45:32;19.90;68.40
47773;DHT22;33534;51.028;13.716;2022-08-03T00:47:58;20.00;68.20
47773;DHT22;33534;51.028;13.716;2022-08-03T00:50:27;19.90;68.20
47773;DHT22;33534;51.028;13.716;2022-08-03T00:52:54;19.80;68.50
47773;DHT22;33534;51.028;13.716;2022-08-03T00:55:21;19.70;68.70
47773;DHT22;33534;51.028;13.716;2022-08-03T00:57:47;19.70;68.70
47773;DHT22;33534;51.028;13.716;2022-08-03T01:00:16;19.60;68.70
47773;DHT22;33534;51.028;13.716;2022-08-03T01:02:42;19.60;69.00
47773;DHT22;33534;51.028;13.716;2022-08-03T01:05:08;19.60;69.10
47773;DHT22;33534;51.028;13.716;2022-08-03T01:07:45;19.50;69.20
47773;DHT22;33534;51.028;13.716;2022-08-03T01:12:51;19.50;69.20
47773;DHT22;33534;51.028;13.716;2022-08-03T01:20:31;19.50;69.60
47773;DHT22;33534;51.028;13.716;2022-08-03T01:25:33;19.50;69.60
47773;DHT22;33534;51.028;13.716;2022-08-03T01:28:32;19.40;69.80
47773;DHT22;33534;51.028;13.716;2022-08-03T02:32:35;18.70;72.20
47773;DHT22;33534;51.028;13.716;2022-08-03T02:35:03;18.70;72.40
47773;DHT22;33534;51.028;13.716;2022-08-03T02:37:33;18.60;72.50
47773;DHT22;33534;51.028;13.716;2022-08-03T02:57:16;18.40;73.70
47773;DHT22;33534;51.028;13.716;2022-08-03T02:59:44;18.40;74.00
47773;DHT22;33534;51.028;13.716;2022-08-03T03:02:11;18.30;74.20
47773;DHT22;33534;51.028;13.716;2022-08-03T03:04:36;18.40;74.10
47773;DHT22;33534;51.028;13.716;2022-08-03T03:07:02;18.30;74.20
47773;DHT22;33534;51.028;13.716;2022-08-03T03:09:29;18.30;74.40
47773;DHT22;33534;51.028;13.716;2022-08-03T03:11:56;18.30;74.30
47773;DHT22;33534;51.028;13.716;2022-08-03T03:14:22;18.30;74.50
47773;DHT22;33534;51.028;13.716;2022-08-03T03:16:49;18.30;74.50
47773;DHT22;33534;51.028;13.716;2022-08-03T03:19:16;18.20;74.60
47773;DHT22;33534;51.028;13.716;2022-08-03T03:21:43;18.20;74.60
47773;DHT22;33534;51.028;13.716;2022-08-03T03:24:09;18.20;74.80
47773;DHT22;33534;51.028;13.716;2022-08-03T03:26:36;18.30;74.60
47773;DHT22;33534;51.028;13.716;2022-08-03T03:29:02;18.30;74.20
47773;DHT22;33534;51.028;13.716;2022-08-03T03:31:28;18.40;74.20
47773;DHT22;33534;51.028;13.716;2022-08-03T03:33:57;18.30;74.40
47773;DHT22;33534;51.028;13.716;2022-08-03T03:36:23;18.30;74.40
47773;DHT22;33534;51.028;13.716;2022-08-03T03:38:48;18.40;74.30
47773;DHT22;33534;51.028;13.716;2022-08-03T03:41:14;18.40;74.00
47773;DHT22;33534;51.028;13.716;2022-08-03T03:43:40;18.40;74.10
47773;DHT22;33534;51.028;13.716;2022-08-03T03:46:06;18.40;74.20
47773;DHT22;33534;51.028;13.716;2022-08-03T03:48:32;18.30;74.30
47773;DHT22;33534;51.028;13.716;2022-08-03T03:50:58;18.30;74.50
47773;DHT22;33534;51.028;13.716;2022-08-03T03:53:24;18.30;74.50
47773;DHT22;33534;51.028;13.716;2022-08-03T03:55:51;18.40;74.20
47773;DHT22;33534;51.028;13.716;2022-08-03T03:58:19;18.50;74.10
47773;DHT22;33534;51.028;13.716;2022-08-03T04:00:45;18.50;73.90
47773;DHT22;33534;51.028;13.716;2022-08-03T04:03:10;18.50;73.90
47773;DHT22;33534;51.028;13.716;2022-08-03T04:05:37;18.60;73.70
47773;DHT22;33534;51.028;13.716;2022-08-03T04:08:21;18.80;73.30
47773;DHT22;33534;51.028;13.716;2022-08-03T04:11:15;19.50;71.70
47773;DHT22;33534;51.028;13.716;2022-08-03T04:31:13;23.60;57.60
47773;DHT22;33534;51.028;13.716;2022-08-03T04:39:05;26.80;48.80
47773;DHT22;33534;51.028;13.716;2022-08-03T04:41:30;28.00;45.00
47773;DHT22;33534;51.028;13.716;2022-08-03T04:43:57;29.20;42.90
47773;DHT22;33534;51.028;13.716;2022-08-03T04:46:27;30.00;41.00
47773;DHT22;33534;51.028;13.716;2022-08-03T04:48:54;30.20;40.50
47773;DHT22;33534;51.028;13.716;2022-08-03T04:51:20;31.10;38.50
47773;DHT22;33534;51.028;13.716;2022-08-03T04:53:46;31.30;37.30
47773;DHT22;33534;51.028;13.716;2022-08-03T04:56:12;31.30;37.30
47773;DHT22;33534;51.028;13.716;2022-08-03T04:58:37;31.80;37.30
47773;DHT22;33534;51.028;13.716;2022-08-03T05:01:03;31.30;36.70
47773;DHT22;33534;51.028;13.716;2022-08-03T05:03:29;30.80;38.10
47773;DHT22;33534;51.028;13.716;2022-08-03T05:05:56;31.20;37.20
47773;DHT22;33534;51.028;13.716;2022-08-03T05:08:21;31.50;37.10
47773;DHT22;33534;51.028;13.716;2022-08-03T05:10:47;31.50;36.40
47773;DHT22;33534;51.028;13.716;2022-08-03T05:15:39;33.10;34.20
47773;DHT22;33534;51.028;13.716;2022-08-03T05:18:06;33.80;33.00
47773;DHT22;33534;51.028;13.716;2022-08-03T05:20:31;33.80;32.90
47773;DHT22;33534;51.028;13.716;2022-08-03T05:25:26;35.30;30.70
47773;DHT22;33534;51.028;13.716;2022-08-03T05:27:51;34.90;30.70
47773;DHT22;33534;51.028;13.716;2022-08-03T05:30:17;35.00;30.60
47773;DHT22;33534;51.028;13.716;2022-08-03T05:32:42;34.80;31.10
47773;DHT22;33534;51.028;13.716;2022-08-03T05:35:08;33.70;32.60
47773;DHT22;33534;51.028;13.716;2022-08-03T05:37:34;33.60;33.00
47773;DHT22;33534;51.028;13.716;2022-08-03T05:39:59;34.60;31.80
47773;DHT22;33534;51.028;13.716;2022-08-03T05:42:25;35.50;30.50
47773;DHT22;33534;51.028;13.716;2022-08-03T05:44:50;35.90;29.70
47773;DHT22;33534;51.028;13.716;2022-08-03T05:47:16;34.70;31.00
47773;DHT22;33534;51.028;13.716;2022-08-03T05:49:41;34.20;32.10
47773;DHT22;33534;51.028;13.716;2022-08-03T05:52:07;35.30;30.90
47773;DHT22;33534;51.028;13.716;2022-08-03T05:54:33;36.00;29.10
47773;DHT22;33534;51.028;13.716;2022-08-03T05:56:58;35.20;30.20
47773;DHT22;33534;51.028;13.716;2022-08-03T05:59:24;34.70;31.50
47773;DHT22;33534;51.028;13.716;2022-08-03T06:01:51;36.20;29.60
47773;DHT22;33534;51.028;13.716;2022-08-03T06:04:17;36.50;28.70
47773;DHT22;33534;51.028;13.716;2022-08-03T06:06:42;37.40;28.20
47773;DHT22;33534;51.028;13.716;2022-08-03T06:09:08;37.60;27.30
47773;DHT22;33534;51.028;13.716;2022-08-03T06:11:38;36.60;28.40
47773;DHT22;33534;51.028;13.716;2022-08-03T06:14:04;36.50;29.00
47773;DHT22;33534;51.028;13.716;2022-08-03T06:16:30;37.00;28.10
47773;DHT22;33534;51.028;13.716;2022-08-03T06:18:56;37.30;27.40
47773;DHT22;33534;51.028;13.716;2022-08-03T06:21:22;35.50;29.70
47773;DHT22;33534;51.028;13.716;2022-08-03T06:23:47;34.60;31.20
47773;DHT22;33534;51.028;13.716;2022-08-03T06:26:13;34.90;31.20
47773;DHT22;33534;51.028;13.716;2022-08-03T06:28:39;34.40;31.30
47773;DHT22;33534;51.028;13.716;2022-08-03T06:31:04;34.20;32.20
47773;DHT22;33534;51.028;13.716;2022-08-03T06:35:56;36.30;29.20
47773;DHT22;33534;51.028;13.716;2022-08-03T06:38:22;35.90;29.70
47773;DHT22;33534;51.028;13.716;2022-08-03T06:40:47;37.10;28.30
47773;DHT22;33534;51.028;13.716;2022-08-03T06:45:40;38.60;26.50
47773;DHT22;33534;51.028;13.716;2022-08-03T06:48:08;38.50;26.30
47773;DHT22;33534;51.028;13.716;2022-08-03T06:50:35;37.80;27.40
47773;DHT22;33534;51.028;13.716;2022-08-03T06:53:02;38.30;26.70
47773;DHT22;33534;51.028;13.716;2022-08-03T06:55:27;37.60;27.20
47773;DHT22;33534;51.028;13.716;2022-08-03T06:57:53;38.00;27.10
47773;DHT22;33534;51.028;13.716;2022-08-03T07:00:19;37.90;27.00
47773;DHT22;33534;51.028;13.716;2022-08-03T07:10:05;36.70;28.80
47773;DHT22;33534;51.028;13.716;2022-08-03T07:12:31;37.50;27.60
47773;DHT22;33534;51.028;13.716;2022-08-03T07:14:58;37.40;27.70
47773;DHT22;33534;51.028;13.716;2022-08-03T07:17:24;37.10;27.70
47773;DHT22;33534;51.028;13.716;2022-08-03T07:19:49;35.90;29.70
47773;DHT22;33534;51.028;13.716;2022-08-03T07:29:34;36.40;28.10
47773;DHT22;33534;51.028;13.716;2022-08-03T07:32:01;35.60;28.90
47773;DHT22;33534;51.028;13.716;2022-08-03T07:34:26;34.50;31.10
47773;DHT22;33534;51.028;13.716;2022-08-03T08:01:15;39.40;24.90
47773;DHT22;33534;51.028;13.716;2022-08-03T08:03:41;39.70;24.40
47773;DHT22;33534;51.028;13.716;2022-08-03T08:06:07;37.40;27.10
47773;DHT22;33534;51.028;13.716;2022-08-03T08:08:32;37.60;27.30
47773;DHT22;33534;51.028;13.716;2022-08-03T08:10:58;38.50;26.60
47773;DHT22;33534;51.028;13.716;2022-08-03T08:13:24;38.80;25.60
47773;DHT22;33534;51.028;13.716;2022-08-03T08:15:49;38.00;26.30
47773;DHT22;33534;51.028;13.716;2022-08-03T08:18:15;36.90;27.70
47773;DHT22;33534;51.028;13.716;2022-08-03T08:20:40;37.00;28.50
47773;DHT22;33534;51.028;13.716;2022-08-03T08:23:07;37.80;27.10
47773;DHT22;33534;51.028;13.716;2022-08-03T08:25:33;36.60;28.30
47773;DHT22;33534;51.028;13.716;2022-08-03T08:27:59;37.30;27.60
47773;DHT22;33534;51.028;13.716;2022-08-03T08:30:27;38.00;26.90
47773;DHT22;33534;51.028;13.716;2022-08-03T08:32:52;37.60;27.20
47773;DHT22;33534;51.028;13.716;2022-08-03T08:35:18;38.50;26.20
47773;DHT22;33534;51.028;13.716;2022-08-03T08:37:44;37.70;27.00
47773;DHT22;33534;51.028;13.716;2022-08-03T08:40:10;36.90;27.90
47773;DHT22;33534;51.028;13.716;2022-08-03T08:42:38;37.10;27.90
47773;DHT22;33534;51.028;13.716;2022-08-03T08:45:04;38.30;27.10
47773;DHT22;33534;51.028;13.716;2022-08-03T08:47:31;39.00;25.70
47773;DHT22;33534;51.028;13.716;2022-08-03T08:49:59;39.90;24.90
47773;DHT22;33534;51.028;13.716;2022-08-03T08:52:27;40.80;24.00
47773;DHT22;33534;51.028;13.716;2022-08-03T08:54:59;41.40;23.10
47773;DHT22;33534;51.028;13.716;2022-08-03T08:57:29;41.50;23.00
47773;DHT22;33534;51.028;13.716;2022-08-03T09:02:28;40.00;24.00
47773;DHT22;33534;51.028;13.716;2022-08-03T09:04:55;38.30;25.80
47773;DHT22;33534;51.028;13.716;2022-08-03T09:07:21;37.80;26.30
47773;DHT22;33534;51.028;13.716;2022-08-03T09:09:47;36.30;28.10
47773;DHT22;33534;51.028;13.716;2022-08-03T09:12:13;36.70;28.40
47773;DHT22;33534;51.028;13.716;2022-08-03T09:14:39;37.80;26.70
47773;DHT22;33534;51.028;13.716;2022-08-03T09:17:05;37.90;26.70
47773;DHT22;33534;51.028;13.716;2022-08-03T09:19:33;37.70;26.80
47773;DHT22;33534;51.028;13.716;2022-08-03T09:22:11;37.70;27.00
47773;DHT22;33534;51.028;13.716;2022-08-03T09:24:54;38.40;26.30
47773;DHT22;33534;51.028;13.716;2022-08-03T09:27:21;38.20;25.80
47773;DHT22;33534;51.028;13.716;2022-08-03T09:29:51;38.00;26.00
47773;DHT22;33534;51.028;13.716;2022-08-03T09:32:21;38.20;25.90
47773;DHT22;33534;51.028;13.716;2022-08-03T09:34:49;36.40;27.50
47773;DHT22;33534;51.028;13.716;2022-08-03T09:37:16;36.30;28.30
47773;DHT22;33534;51.028;13.716;2022-08-03T09:39:42;35.90;28.20
47773;DHT22;33534;51.028;13.716;2022-08-03T09:42:18;35.70;28.50
47773;DHT22;33534;51.028;13.716;2022-08-03T09:44:50;36.50;28.40
47773;DHT22;33534;51.028;13.716;2022-08-03T09:47:29;37.00;27.90
47773;DHT22;33534;51.028;13.716;2022-08-03T09:50:08;36.50;27.40
47773;DHT22;33534;51.028;13.716;2022-08-03T09:52:37;35.60;28.50
47773;DHT22;33534;51.028;13.716;2022-08-03T09:55:12;35.90;29.00
47773;DHT22;33534;51.028;13.716;2022-08-03T09:57:38;36.50;28.50
47773;DHT22;33534;51.028;13.716;2022-08-03T10:00:13;36.90;28.00
47773;DHT22;33534;51.028;13.716;2022-08-03T10:02:41;37.30;27.50
47773;DHT22;33534;51.028;13.716;2022-08-03T10:05:08;36.80;27.50
47773;DHT22;33534;51.028;13.716;2022-08-03T10:07:45;36.60;28.20
47773;DHT22;33534;51.028;13.716;2022-08-03T10:10:12;36.90;28.00
47773;DHT22;33534;51.028;13.716;2022-08-03T10:12:39;37.30;27.20
47773;DHT22;33534;51.028;13.716;2022-08-03T10:15:06;36.90;26.50
47773;DHT22;33534;51.028;13.716;2022-08-03T10:17:32;35.90;27.90
47773;DHT22;33534;51.028;13.716;2022-08-03T10:19:58;35.50;28.60
47773;DHT22;33534;51.028;13.716;2022-08-03T10:22:31;35.80;28.70
47773;DHT22;33534;51.028;13.716;2022-08-03T10:25:11;35.10;30.00
47773;DHT22;33534;51.028;13.716;2022-08-03T10:27:39;35.00;29.90
47773;DHT22;33534;51.028;13.716;2022-08-03T10:30:07;35.10;30.50
47773;DHT22;33534;51.028;13.716;2022-08-03T10:32:40;35.20;30.10
47773;DHT22;33534;51.028;13.716;2022-08-03T10:35:12;35.40;30.10
47773;DHT22;33534;51.028;13.716;2022-08-03T10:38:00;35.40;29.90
47773;DHT22;33534;51.028;13.716;2022-08-03T10:40:29;35.40;29.70
47773;DHT22;33534;51.028;13.716;2022-08-03T10:42:58;34.80;30.40
47773;DHT22;33534;51.028;13.716;2022-08-03T10:50:24;33.90;31.00
47773;DHT22;33534;51.028;13.716;2022-08-03T10:53:02;33.60;31.20
47773;DHT22;33534;51.028;13.716;2022-08-03T11:01:08;33.80;30.90
47773;DHT22;33534;51.028;13.716;2022-08-03T11:06:20;33.50;30.90
47773;DHT22;33534;51.028;13.716;2022-08-03T11:08:48;33.40;31.90
47773;DHT22;33534;51.028;13.716;2022-08-03T11:14:05;33.60;32.10
47773;DHT22;33534;51.028;13.716;2022-08-03T11:16:43;33.70;31.70
47773;DHT22;33534;51.028;13.716;2022-08-03T11:19:16;33.60;31.30
47773;DHT22;33534;51.028;13.716;2022-08-03T11:35:19;32.20;33.40
47773;DHT22;33534;51.028;13.716;2022-08-03T11:41:10;32.10;33.30
47773;DHT22;33534;51.028;13.716;2022-08-03T11:51:02;32.40;32.40
47773;DHT22;33534;51.028;13.716;2022-08-03T11:53:28;32.30;32.60
47773;DHT22;33534;51.028;13.716;2022-08-03T11:55:58;32.30;32.50
47773;DHT22;33534;51.028;13.716;2022-08-03T11:58:23;32.30;32.60
47773;DHT22;33534;51.028;13.716;2022-08-03T12:00:49;32.30;32.80
47773;DHT22;33534;51.028;13.716;2022-08-03T12:03:17;32.50;32.30
47773;DHT22;33534;51.028;13.716;2022-08-03T12:05:48;32.50;32.30
47773;DHT22;33534;51.028;13.716;2022-08-03T12:08:16;32.30;32.10
47773;DHT22;33534;51.028;13.716;2022-08-03T12:10:47;32.20;32.40
47773;DHT22;33534;51.028;13.716;2022-08-03T12:13:14;32.50;32.50
47773;DHT22;33534;51.028;13.716;2022-08-03T12:15:39;32.90;32.20
47773;DHT22;33534;51.028;13.716;2022-08-03T12:18:14;33.20;31.70
47773;DHT22;33534;51.028;13.716;2022-08-03T12:20:40;33.20;30.60
47773;DHT22;33534;51.028;13.716;2022-08-03T12:23:06;32.60;31.30
47773;DHT22;33534;51.028;13.716;2022-08-03T12:25:33;32.30;31.90
47773;DHT22;33534;51.028;13.716;2022-08-03T12:30:41;32.80;31.50
47773;DHT22;33534;51.028;13.716;2022-08-03T12:33:15;32.70;31.30
47773;DHT22;33534;51.028;13.716;2022-08-03T12:35:41;32.50;30.90
47773;DHT22;33534;51.028;13.716;2022-08-03T12:38:07;32.30;31.30
47773;DHT22;33534;51.028;13.716;2022-08-03T12:40:35;32.40;31.60
47773;DHT22;33534;51.028;13.716;2022-08-03T12:43:10;32.20;31.90
47773;DHT22;33534;51.028;13.716;2022-08-03T12:45:36;31.90;32.30
47773;DHT22;33534;51.028;13.716;2022-08-03T12:48:02;31.80;32.10
47773;DHT22;33534;51.028;13.716;2022-08-03T12:50:34;31.90;31.90
47773;DHT22;33534;51.028;13.716;2022-08-03T12:53:02;32.10;31.90
47773;DHT22;33534;51.028;13.716;2022-08-03T12:55:29;32.20;31.10
47773;DHT22;33534;51.028;13.716;2022-08-03T12:58:07;32.10;31.20
47773;DHT22;33534;51.028;13.716;2022-08-03T13:00:35;32.10;31.00
47773;DHT22;33534;51.028;13.716;2022-08-03T13:03:03;32.10;31.80
47773;DHT22;33534;51.028;13.716;2022-08-03T13:05:29;32.30;31.70
47773;DHT22;33534;51.028;13.716;2022-08-03T13:07:55;32.00;30.60
47773;DHT22;33534;51.028;13.716;2022-08-03T13:10:31;32.00;31.20
47773;DHT22;33534;51.028;13.716;2022-08-03T13:12:58;32.20;31.60
47773;DHT22;33534;51.028;13.716;2022-08-03T13:15:27;32.30;31.10
47773;DHT22;33534;51.028;13.716;2022-08-03T13:17:55;32.20;31.20
47773;DHT22;33534;51.028;13.716;2022-08-03T13:20:21;32.30;30.10
47773;DHT22;33534;51.028;13.716;2022-08-03T13:22:47;32.30;30.20
47773;DHT22;33534;51.028;13.716;2022-08-03T13:25:13;32.40;29.60
47773;DHT22;33534;51.028;13.716;2022-08-03T13:27:39;32.50;29.30
47773;DHT22;33534;51.028;13.716;2022-08-03T13:30:06;32.60;28.20
47773;DHT22;33534;51.028;13.716;2022-08-03T13:32:33;32.70;29.50
47773;DHT22;33534;51.028;13.716;2022-08-03T13:34:59;32.80;29.80
47773;DHT22;33534;51.028;13.716;2022-08-03T13:37:25;32.90;29.80
47773;DHT22;33534;51.028;13.716;2022-08-03T13:39:50;32.80;29.60
47773;DHT22;33534;51.028;13.716;2022-08-03T13:42:16;32.70;29.10
47773;DHT22;33534;51.028;13.716;2022-08-03T13:44:42;32.60;29.30
47773;DHT22;33534;51.028;13.716;2022-08-03T13:47:07;32.70;29.30
47773;DHT22;33534;51.028;13.716;2022-08-03T13:49:33;32.70;29.60
47773;DHT22;33534;51.028;13.716;2022-08-03T13:51:59;32.60;29.70
47773;DHT22;33534;51.028;13.716;2022-08-03T13:54:25;32.60;29.30
47773;DHT22;33534;51.028;13.716;2022-08-03T13:56:51;32.70;29.60
47773;DHT22;33534;51.028;13.716;2022-08-03T13:59:21;32.70;29.60
47773;DHT22;33534;51.028;13.716;2022-08-03T14:01:48;32.90;29.20
47773;DHT22;33534;51.028;13.716;2022-08-03T14:04:14;32.80;28.90
47773;DHT22;33534;51.028;13.716;2022-08-03T14:06:40;32.90;28.70
47773;DHT22;33534;51.028;13.716;2022-08-03T14:09:05;32.90;28.20
47773;DHT22;33534;51.028;13.716;2022-08-03T14:11:31;32.80;28.30
47773;DHT22;33534;51.028;13.716;2022-08-03T14:13:57;32.70;28.00
47773;DHT22;33534;51.028;13.716;2022-08-03T14:16:22;32.60;28.80
47773;DHT22;33534;51.028;13.716;2022-08-03T14:18:48;32.60;29.00
47773;DHT22;33534;51.028;13.716;2022-08-03T14:21:13;32.70;28.50
47773;DHT22;33534;51.028;13.716;2022-08-03T14:23:39;32.60;28.30
47773;DHT22;33534;51.028;13.716;2022-08-03T14:26:06;32.60;28.30
47773;DHT22;33534;51.028;13.716;2022-08-03T14:28:31;32.80;27.70
47773;DHT22;33534;51.028;13.716;2022-08-03T14:30:57;33.00;27.90
47773;DHT22;33534;51.028;13.716;2022-08-03T14:33:24;33.10;26.90
47773;DHT22;33534;51.028;13.716;2022-08-03T14:35:50;33.10;26.50
47773;DHT22;33534;51.028;13.716;2022-08-03T14:38:16;33.20;26.20
47773;DHT22;33534;51.028;13.716;2022-08-03T14:40:42;33.20;26.10
47773;DHT22;33534;51.028;13.716;2022-08-03T14:43:08;33.30;26.90
47773;DHT22;33534;51.028;13.716;2022-08-03T14:45:33;33.40;26.80
47773;DHT22;33534;51.028;13.716;2022-08-03T14:47:59;33.30;26.40
47773;DHT22;33534;51.028;13.716;2022-08-03T14:50:25;33.30;27.40
47773;DHT22;33534;51.028;13.716;2022-08-03T14:52:53;33.20;26.50
47773;DHT22;33534;51.028;13.716;2022-08-03T14:55:18;33.10;25.90
47773;DHT22;33534;51.028;13.716;2022-08-03T14:57:44;33.00;26.70
47773;DHT22;33534;51.028;13.716;2022-08-03T15:00:10;33.10;26.50
47773;DHT22;33534;51.028;13.716;2022-08-03T15:02:36;33.10;26.20
47773;DHT22;33534;51.028;13.716;2022-08-03T15:05:02;33.00;26.50
47773;DHT22;33534;51.028;13.716;2022-08-03T15:07:28;33.10;26.00
47773;DHT22;33534;51.028;13.716;2022-08-03T15:09:53;33.10;25.90
47773;DHT22;33534;51.028;13.716;2022-08-03T15:12:19;33.20;26.30
47773;DHT22;33534;51.028;13.716;2022-08-03T15:14:44;33.10;26.40
47773;DHT22;33534;51.028;13.716;2022-08-03T15:17:10;33.10;26.30
47773;DHT22;33534;51.028;13.716;2022-08-03T15:19:36;33.00;26.00
47773;DHT22;33534;51.028;13.716;2022-08-03T15:22:01;32.90;26.10
47773;DHT22;33534;51.028;13.716;2022-08-03T15:24:27;33.00;26.90
47773;DHT22;33534;51.028;13.716;2022-08-03T15:26:53;33.10;27.10
47773;DHT22;33534;51.028;13.716;2022-08-03T15:29:19;33.20;27.00
47773;DHT22;33534;51.028;13.716;2022-08-03T15:31:45;33.20;27.20
47773;DHT22;33534;51.028;13.716;2022-08-03T15:34:10;33.20;26.50
47773;DHT22;33534;51.028;13.716;2022-08-03T15:36:37;33.20;27.40
47773;DHT22;33534;51.028;13.716;2022-08-03T15:39:03;33.10;27.50
47773;DHT22;33534;51.028;13.716;2022-08-03T15:41:29;33.00;27.80
47773;DHT22;33534;51.028;13.716;2022-08-03T15:43:54;33.00;27.10
47773;DHT22;33534;51.028;13.716;2022-08-03T15:46:20;32.90;26.80
47773;DHT22;33534;51.028;13.716;2022-08-03T15:48:46;32.90;27.30
47773;DHT22;33534;51.028;13.716;2022-08-03T15:51:11;32.90;26.70
47773;DHT22;33534;51.028;13.716;2022-08-03T15:53:37;32.90;26.60
47773;DHT22;33534;51.028;13.716;2022-08-03T15:56:04;32.90;27.00
47773;DHT22;33534;51.028;13.716;2022-08-03T15:58:32;33.00;26.80
47773;DHT22;33534;51.028;13.716;2022-08-03T16:00:58;33.00;27.10
47773;DHT22;33534;51.028;13.716;2022-08-03T16:03:27;33.00;26.80
47773;DHT22;33534;51.028;13.716;2022-08-03T16:06:02;33.00;27.00
47773;DHT22;33534;51.028;13.716;2022-08-03T16:08:28;33.00;27.30
47773;DHT22;33534;51.028;13.716;2022-08-03T16:10:53;33.10;26.80
47773;DHT22;33534;51.028;13.716;2022-08-03T16:13:19;33.10;26.70
47773;DHT22;33534;51.028;13.716;2022-08-03T16:15:45;33.00;26.90
47773;DHT22;33534;51.028;13.716;2022-08-03T16:18:11;32.90;26.60
47773;DHT22;33534;51.028;13.716;2022-08-03T16:20:37;32.80;26.50
47773;DHT22;33534;51.028;13.716;2022-08-03T16:23:03;32.90;26.90
47773;DHT22;33534;51.028;13.716;2022-08-03T16:25:29;32.80;26.20
47773;DHT22;33534;51.028;13.716;2022-08-03T16:27:55;32.80;26.80
47773;DHT22;33534;51.028;13.716;2022-08-03T16:30:20;32.90;27.20
47773;DHT22;33534;51.028;13.716;2022-08-03T16:32:46;32.90;26.90
47773;DHT22;33534;51.028;13.716;2022-08-03T16:35:12;32.90;26.50
47773;DHT22;33534;51.028;13.716;2022-08-03T16:37:38;32.70;26.30
47773;DHT22;33534;51.028;13.716;2022-08-03T16:40:06;32.70;26.30
47773;DHT22;33534;51.028;13.716;2022-08-03T16:42:34;32.50;26.50
47773;DHT22;33534;51.028;13.716;2022-08-03T16:45:00;32.60;26.60
47773;DHT22;33534;51.028;13.716;2022-08-03T16:47:25;32.60;26.90
47773;DHT22;33534;51.028;13.716;2022-08-03T16:49:51;32.60;26.70
47773;DHT22;33534;51.028;13.716;2022-08-03T16:52:16;32.60;26.80
47773;DHT22;33534;51.028;13.716;2022-08-03T16:54:42;32.60;27.00
47773;DHT22;33534;51.028;13.716;2022-08-03T16:57:08;32.60;27.50
47773;DHT22;33534;51.028;13.716;2022-08-03T16:59:34;32.60;27.50
47773;DHT22;33534;51.028;13.716;2022-08-03T17:02:02;32.50;29.20
47773;DHT22;33534;51.028;13.716;2022-08-03T17:04:28;32.40;27.30
47773;DHT22;33534;51.028;13.716;2022-08-03T17:06:54;32.40;28.00
47773;DHT22;33534;51.028;13.716;2022-08-03T17:09:20;32.30;30.80
47773;DHT22;33534;51.028;13.716;2022-08-03T17:11:48;32.20;29.50
47773;DHT22;33534;51.028;13.716;2022-08-03T17:14:20;32.10;29.00
47773;DHT22;33534;51.028;13.716;2022-08-03T17:16:50;32.00;30.50
47773;DHT22;33534;51.028;13.716;2022-08-03T17:19:17;31.90;31.00
47773;DHT22;33534;51.028;13.716;2022-08-03T17:21:50;31.90;32.00
47773;DHT22;33534;51.028;13.716;2022-08-03T17:24:27;31.80;30.80
47773;DHT22;33534;51.028;13.716;2022-08-03T17:26:59;31.60;32.50
47773;DHT22;33534;51.028;13.716;2022-08-03T17:29:26;31.60;32.60
47773;DHT22;33534;51.028;13.716;2022-08-03T17:31:53;31.40;33.50
47773;DHT22;33534;51.028;13.716;2022-08-03T17:34:19;31.40;33.40
47773;DHT22;33534;51.028;13.716;2022-08-03T17:36:46;31.40;34.10
47773;DHT22;33534;51.028;13.716;2022-08-03T17:39:14;31.20;33.70
47773;DHT22;33534;51.028;13.716;2022-08-03T17:41:40;31.00;33.90
47773;DHT22;33534;51.028;13.716;2022-08-03T17:44:06;30.90;34.60
47773;DHT22;33534;51.028;13.716;2022-08-03T17:46:32;30.90;34.80
47773;DHT22;33534;51.028;13.716;2022-08-03T17:48:58;30.80;34.90
47773;DHT22;33534;51.028;13.716;2022-08-03T17:51:32;30.70;35.10
47773;DHT22;33534;51.028;13.716;2022-08-03T18:04:56;30.40;35.40
47773;DHT22;33534;51.028;13.716;2022-08-03T18:07:27;30.30;35.20
47773;DHT22;33534;51.028;13.716;2022-08-03T18:09:56;30.20;35.00
47773;DHT22;33534;51.028;13.716;2022-08-03T18:12:25;30.20;34.60
47773;DHT22;33534;51.028;13.716;2022-08-03T18:14:59;30.20;33.30
47773;DHT22;33534;51.028;13.716;2022-08-03T18:17:28;30.20;31.70
47773;DHT22;33534;51.028;13.716;2022-08-03T18:19:55;30.20;32.40
47773;DHT22;33534;51.028;13.716;2022-08-03T18:22:21;30.30;32.50
47773;DHT22;33534;51.028;13.716;2022-08-03T18:24:51;30.30;31.40
47773;DHT22;33534;51.028;13.716;2022-08-03T18:27:19;30.30;32.70
47773;DHT22;33534;51.028;13.716;2022-08-03T18:29:45;30.20;33.60
47773;DHT22;33534;51.028;13.716;2022-08-03T18:32:11;30.10;32.20
47773;DHT22;33534;51.028;13.716;2022-08-03T18:34:37;30.00;31.10
47773;DHT22;33534;51.028;13.716;2022-08-03T18:37:04;30.00;32.60
47773;DHT22;33534;51.028;13.716;2022-08-03T18:39:30;30.00;32.40
47773;DHT22;33534;51.028;13.716;2022-08-03T18:41:57;29.90;34.70
47773;DHT22;33534;51.028;13.716;2022-08-03T18:44:25;29.70;34.00
